Airfield :
LOGIN :

Register | Disclaimer

   EN    FR    IT 

 










Legend :    VFR   Marginal VFR   IFR   Intensive IFR   Very Intensive IFR
Visi :
Ceiling :
>= 8 km
>= 3000ft
5 to 8 km
1000 to 3000 ft
1500m to 5 km
500 to 1000 ft
800 to 1500m
200 to 500 ft
< 800m
< 200 ft
Symbols :   Thunderstorms  Fog  Heavy snow  Heavy precipitations  Wind > 20 kt
SIGMETs :     Misc.  Thunderstorms  Icing  Turbulence  Mountain Waves  Volcanic Ashes






- Airport Elevation : 436 ft
- IATA code : ANG


LFBU - Angoulême Brie Champniers

CURRENT METAR :
  • 291200Z AUTO 17009KT 140V200 5000 -RADZ BR OVC005 10/09 Q1012 TEMPO 2000 RADZ

EXPIRED METARs :
  • 291130Z AUTO 15008KT 120V180 6000 OVC004 09/09 Q1013 TEMPO 1500 RADZ
  • 291100Z AUTO 15008KT 9000 OVC004 09/09 Q1013 TEMPO 1500 RADZ
  • 291030Z AUTO 15008KT 110V200 5000 -DZ BR OVC003 09/09 Q1014 TEMPO 1500 RADZ
  • 291000Z AUTO 15008KT 120V190 5000 BR OVC003 09/09 Q1014 TEMPO 1500 RADZ VV///
  • 290930Z AUTO 16008KT 120V190 9999 OVC004 09/09 Q1014 TEMPO 1500 RADZ VV///
  • 290900Z AUTO 16008KT 130V200 9999 OVC004 09/09 Q1015 TEMPO 0700 FG VV///
  • 290830Z AUTO 16006KT 120V200 9999 OVC003 09/09 Q1015 TEMPO 0700 FG VV///
  • 290800Z AUTO 16005KT 110V190 9999 OVC003 09/08 Q1015 TEMPO 0700 FG VV///
  • 290730Z AUTO 16007KT 130V190 9999 OVC003 09/08 Q1016 TEMPO 0700 FG VV///

TAF TAF LFBU
Valid from the 29 at 12:00 until the 01 at 12:00 UTC


291100Z 2912/0112 18010KT 9999 BKN010
TEMPO 2912/2916 2000 RADZ BKN004
BECMG 2916/2918 24010KT BKN015
TEMPO 2918/2922 30015G25KT 3000 SHRA BKN010 BKN015TCU
TEMPO 0102/0106 2000 MIFG
TEMPO 0109/0112 21015G30KT 3000 SHRA BKN005 BKN020TCU
PROB30
TEMPO 0110/0112 BKN020CB



MET'MAP, your aeronautical weather chart ! - Copyright ORBIFLY December 2007 - Disclaimer

ORBIFLY MET'MAP TEAM :

Programming & Development : Alexandra Zaïnal
Original concept : Baudouin d'Aumeries
Technical & hardware support : Manuel Goepfert
Assistance : Marc-Olivier Méhu




SOURCES & CREDITS :

   NOAA